Portada
METAR-TAF:

METAR-TAF

Aeropuertos :

El Hierro, España

Aeropuerto de El Hierro

latitud: 27-49N, longitud: 017-53W, altitud: 32 m

Observación

El informe se hizo hace 41 minutos, a las 04:30 UTC
Viento 13 kt del norte con ráfagas de 25 kt, variando entre noroeste y norte-noreste
Temperatura 23°C
Humedad 83%
Presión 1017 hPa
Visibilidad 10 km o más

METAR: GCHI 240430Z AUTO 35013G25KT 320V020 9999 ////// 23/20 Q1017

Hora: 06:11 (05:11 UTC)

Pronóstico

El informe se hizo hace 3 horas y 11 minutos, a las 02:00 UTC
Pronóstico válido del 24 a las 03 UTC al 25 a las 03 UTC
Viento 19 kt del norte-noroeste
Visibilidad 10 km o más
Nubes dispersas a una altura de 2000 ft
Probabilidad 30% :
Temporalmente
del 24 a las 03 UTC al 24 a las 06 UTC
Cielo nuboso a una altura de 1400 ft

TAF: GCHI 240200Z 2403/2503 34019KT 9999 SCT020 TX27/2415Z TN23/2405Z PROB30 TEMPO 2403/2406 BKN014

Observaciones y pronósticos meteorológicos de más de 4000 aeropuertos (mensajes METAR y TAF).

Los puntos amarillos y rojos representan las estaciones disponibles.

Ponga el ratón en el punto deseado para ver el nombre de la estación.

Haga clic para ver las observaciones y los pronósticos meteorológicos.

Para cambiar el mapa : haga clic en los botones verdes con una cruz de color negro para hacer un zoom, en el botón verde con un guión para alejar o en las flechas verdes para mapas adyacentes.


METAR-TAF: